Airfield :
LOGIN :

Register | Disclaimer

   EN    FR    IT 

 










Legend :    VFR   Marginal VFR   IFR   Intensive IFR   Very Intensive IFR
Visi :
Ceiling :
>= 8 km
>= 3000ft
5 to 8 km
1000 to 3000 ft
1500m to 5 km
500 to 1000 ft
800 to 1500m
200 to 500 ft
< 800m
< 200 ft
Symbols :   Thunderstorms  Fog  Heavy snow  Heavy precipitations  Wind > 20 kt
SIGMETs :     Misc.  Thunderstorms  Icing  Turbulence  Mountain Waves  Volcanic Ashes






- Airport Elevation : 319 ft


EIME - Casement Air Base

CURRENT METAR :
  • 080730Z VRB01KT 9999 FEW040 09/05 Q1025

EXPIRED METARs :
  • 080700Z 16004KT 9999 BKN040 07/04 Q1025
  • 080600Z 29004KT 9999 BKN040 05/03 Q1024
  • 080500Z VRB02KT 9999 BKN041 06/03 Q1024

TAF TAF EIME
Valid from the 08 at 06:00 until the 08 at 15:00 UTC


080500Z 0806/0815 VRB03KT 9999 BKN040
BECMG 0812/0814 07006KT



MET'MAP, your aeronautical weather chart ! - Copyright ORBIFLY December 2007 - Disclaimer

ORBIFLY MET'MAP TEAM :

Programming & Development : Alexandra Zaïnal
Concept & original design : Baudouin d'Aumeries
Assistance for programming : Marc-Olivier Méhu
Technical & hardware support : Manuel Goepfert

Contact : metmap@orbifly.com




SOURCES & CREDITS :

   NOAA